Boonville, North Carolina
Current Conditions -  °F | °C
As of 8:15 AM on Thursday 23 Oct 2014 (Local Time) from KMWK Reporting Station
Clear Clear  
Wind Chill: 51°   Ceiling: Unl
Heat Index: 51°   Visibility: 10mi
Dew Point: 40°   Wind: 13mph
Humidity: 65%   Direction: 340°NNW
Pressure: 30.07"   Gusts: 24mph
Location:  36.23°N, 80.71°W
Report Text: KMWK 231215Z AUTO 34011G21KT 320V020 10SM CLR 11/04 A3007 RMK AO2 T01050042
Loading
Personal Weather Stations






























Interactive Weather Map
Tropical Storm Tracking
New forecast layout! Learn more

10-Day Weather Forecast

Advertisements
Track Severe Weather on mobile